SIA212 WSSS-YMML
Flight info
| Callsign | SIA212 |
|---|---|
| Flight time | N/A |
| Altitude | 41000 |
| Route | ANITO8B ANITO B470 PKP L895 SAPDA A585 AD V255 BENDO Y12 ARBEY |
| Aircraft | A359/H-SDE2E3GHIJ3J4J5LM1ORWXY/LB1D1 |
Departure
| Time | 2026-05-04 07:49 |
|---|---|
| Airport | Singapore Changi Airport (WSSS) |
Arrival
| Time | N/A |
|---|---|
| Airport | Melbourne Airport (YMML) |
| Time | Latitude | Longitude | Altitude | Speed | Heading |
|---|---|---|---|---|---|
| 2026-05-04 06:54 | 1.36104 | 103.98753 | 31 ft | 0 kts | 112° |
| 2026-05-04 07:30 | 1.36111 | 103.98736 | 30 ft | 4 kts | 114° |
| 2026-05-04 07:30 | 1.36123 | 103.98712 | 30 ft | 4 kts | 114° |
| 2026-05-04 07:30 | 1.36133 | 103.98688 | 30 ft | 2 kts | 112° |
| 2026-05-04 07:31 | 1.36140 | 103.98665 | 31 ft | 4 kts | 83° |
| 2026-05-04 07:31 | 1.36130 | 103.98646 | 28 ft | 4 kts | 20° |
| 2026-05-04 07:33 | 1.36082 | 103.98637 | 28 ft | 0 kts | 22° |
| 2026-05-04 07:38 | 1.36086 | 103.98639 | 28 ft | 0 kts | 22° |
| 2026-05-04 07:38 | 1.36103 | 103.98646 | 29 ft | 10 kts | 22° |
| 2026-05-04 07:39 | 1.36201 | 103.98687 | 31 ft | 19 kts | 22° |
| 2026-05-04 07:39 | 1.36321 | 103.98736 | 31 ft | 16 kts | 22° |
| 2026-05-04 07:39 | 1.36419 | 103.98777 | 31 ft | 15 kts | 22° |
| 2026-05-04 07:39 | 1.36525 | 103.98807 | 31 ft | 17 kts | 2° |
| 2026-05-04 07:40 | 1.36631 | 103.98797 | 31 ft | 14 kts | 353° |
| 2026-05-04 07:40 | 1.36730 | 103.98811 | 31 ft | 16 kts | 19° |
| 2026-05-04 07:40 | 1.36767 | 103.98825 | 31 ft | 2 kts | 26° |
| 2026-05-04 07:40 | 1.36786 | 103.98897 | 31 ft | 21 kts | 109° |
| 2026-05-04 07:41 | 1.36723 | 103.99050 | 31 ft | 22 kts | 113° |
| 2026-05-04 07:41 | 1.36663 | 103.99189 | 31 ft | 21 kts | 113° |
| 2026-05-04 07:41 | 1.36608 | 103.99317 | 31 ft | 17 kts | 113° |
| 2026-05-04 07:41 | 1.36559 | 103.99431 | 31 ft | 18 kts | 112° |
| 2026-05-04 07:42 | 1.36509 | 103.99551 | 31 ft | 18 kts | 113° |
| 2026-05-04 07:42 | 1.36461 | 103.99661 | 31 ft | 11 kts | 118° |
| 2026-05-04 07:42 | 1.36443 | 103.99705 | 31 ft | 0 kts | 112° |
| 2026-05-04 07:45 | 1.36442 | 103.99707 | 31 ft | 3 kts | 112° |
| 2026-05-04 07:45 | 1.36420 | 103.99762 | 31 ft | 11 kts | 112° |
| 2026-05-04 07:45 | 1.36396 | 103.99817 | 31 ft | 0 kts | 117° |
| 2026-05-04 07:47 | 1.36378 | 103.99843 | 31 ft | 13 kts | 133° |
| 2026-05-04 07:47 | 1.36279 | 103.99877 | 32 ft | 16 kts | 172° |
| 2026-05-04 07:47 | 1.36169 | 103.99884 | 33 ft | 16 kts | 192° |
| 2026-05-04 07:49 | 1.34968 | 103.99382 | 35 ft | 150 kts | 203° |
| 2026-05-04 07:49 | 1.33928 | 103.98941 | 421 ft | 168 kts | 201° |
| 2026-05-04 07:49 | 1.32839 | 103.98460 | 989 ft | 177 kts | 205° |
| 2026-05-04 07:50 | 1.31722 | 103.97941 | 1580 ft | 177 kts | 205° |
| 2026-05-04 07:50 | 1.30538 | 103.97444 | 1816 ft | 193 kts | 202° |
| 2026-05-04 07:50 | 1.29241 | 103.96919 | 2027 ft | 209 kts | 203° |
| 2026-05-04 07:50 | 1.27850 | 103.96347 | 2285 ft | 224 kts | 203° |
| 2026-05-04 07:51 | 1.26340 | 103.95735 | 2514 ft | 244 kts | 201° |
| 2026-05-04 07:51 | 1.24615 | 103.95440 | 2799 ft | 261 kts | 176° |
| 2026-05-04 07:51 | 1.22898 | 103.96035 | 3281 ft | 268 kts | 144° |
| 2026-05-04 07:51 | 1.21707 | 103.97454 | 3827 ft | 271 kts | 117° |
| 2026-05-04 07:52 | 1.20932 | 103.99178 | 4414 ft | 274 kts | 112° |
| 2026-05-04 07:52 | 1.20200 | 104.00952 | 4961 ft | 277 kts | 112° |
| 2026-05-04 07:52 | 1.19453 | 104.02735 | 5518 ft | 280 kts | 112° |
| 2026-05-04 07:52 | 1.18693 | 104.04528 | 5864 ft | 281 kts | 113° |
| 2026-05-04 07:53 | 1.17908 | 104.06321 | 5961 ft | 282 kts | 115° |
| 2026-05-04 07:54 | 1.11617 | 104.18745 | 8705 ft | 292 kts | 116° |
| 2026-05-04 07:55 | 1.10709 | 104.20572 | 9297 ft | 295 kts | 116° |
| 2026-05-04 07:55 | 1.09604 | 104.22298 | 9837 ft | 296 kts | 132° |
| 2026-05-04 07:55 | 1.07948 | 104.23541 | 10180 ft | 305 kts | 156° |
| 2026-05-04 07:55 | 1.05847 | 104.23992 | 10392 ft | 317 kts | 178° |
| 2026-05-04 07:56 | 1.03602 | 104.23986 | 10607 ft | 329 kts | 181° |
| 2026-05-04 07:56 | 1.01304 | 104.23923 | 10805 ft | 340 kts | 181° |
| 2026-05-04 07:56 | 0.98902 | 104.23867 | 11003 ft | 351 kts | 181° |
| 2026-05-04 07:56 | 0.96426 | 104.23821 | 11247 ft | 359 kts | 180° |
| 2026-05-04 07:57 | 0.93914 | 104.23780 | 11602 ft | 363 kts | 180° |
| 2026-05-04 07:57 | 0.91372 | 104.23742 | 12030 ft | 366 kts | 180° |
| 2026-05-04 07:57 | 0.88814 | 104.23706 | 12456 ft | 369 kts | 180° |
| 2026-05-04 07:57 | 0.86240 | 104.23670 | 12849 ft | 371 kts | 180° |
| 2026-05-04 07:58 | 0.83652 | 104.23646 | 13246 ft | 373 kts | 179° |
| 2026-05-04 07:58 | 0.81896 | 104.23741 | 13505 ft | 374 kts | 173° |
| 2026-05-04 07:58 | 0.79347 | 104.24272 | 13854 ft | 375 kts | 161° |
| 2026-05-04 07:58 | 0.76950 | 104.25298 | 14185 ft | 376 kts | 150° |
| 2026-05-04 07:59 | 0.74703 | 104.26571 | 14512 ft | 377 kts | 148° |
| 2026-05-04 07:59 | 0.72438 | 104.27905 | 14856 ft | 379 kts | 148° |
| 2026-05-04 07:59 | 0.70158 | 104.29247 | 15195 ft | 381 kts | 148° |
| 2026-05-04 07:59 | 0.67867 | 104.30591 | 15534 ft | 383 kts | 148° |
| 2026-05-04 08:00 | 0.65562 | 104.31938 | 15873 ft | 385 kts | 148° |
| 2026-05-04 08:00 | 0.63247 | 104.33290 | 16209 ft | 386 kts | 148° |
| 2026-05-04 08:00 | 0.60918 | 104.34649 | 16552 ft | 388 kts | 148° |
| 2026-05-04 08:02 | 0.44311 | 104.44329 | 18755 ft | 402 kts | 148° |
| 2026-05-04 08:02 | 0.41889 | 104.45740 | 19048 ft | 403 kts | 148° |
| 2026-05-04 08:02 | 0.39458 | 104.47157 | 19326 ft | 405 kts | 148° |
| 2026-05-04 08:03 | 0.37023 | 104.48576 | 19596 ft | 407 kts | 148° |
| 2026-05-04 08:03 | 0.34569 | 104.50006 | 19851 ft | 409 kts | 148° |
| 2026-05-04 08:03 | 0.32109 | 104.51439 | 20132 ft | 410 kts | 148° |
| 2026-05-04 08:03 | 0.29639 | 104.52878 | 20398 ft | 412 kts | 148° |
| 2026-05-04 08:04 | 0.27159 | 104.54324 | 20656 ft | 414 kts | 148° |
| 2026-05-04 08:04 | 0.24671 | 104.55774 | 20910 ft | 415 kts | 148° |
| 2026-05-04 08:04 | 0.22171 | 104.57231 | 21162 ft | 417 kts | 148° |
| 2026-05-04 08:04 | 0.19659 | 104.58694 | 21417 ft | 419 kts | 148° |
| 2026-05-04 08:05 | 0.17137 | 104.60164 | 21672 ft | 420 kts | 148° |
| 2026-05-04 08:05 | 0.14610 | 104.61637 | 21917 ft | 422 kts | 148° |
| 2026-05-04 08:05 | 0.12070 | 104.63116 | 22163 ft | 423 kts | 148° |
| 2026-05-04 08:05 | 0.09518 | 104.64604 | 22414 ft | 425 kts | 148° |
| 2026-05-04 08:06 | 0.06960 | 104.66094 | 22638 ft | 427 kts | 148° |
| 2026-05-04 08:06 | 0.04391 | 104.67591 | 22869 ft | 428 kts | 148° |
| 2026-05-04 08:06 | 0.01813 | 104.69093 | 23096 ft | 430 kts | 148° |
| 2026-05-04 08:06 | -0.00776 | 104.70602 | 23326 ft | 431 kts | 148° |
| 2026-05-04 08:08 | -0.19052 | 104.81252 | 24649 ft | 439 kts | 148° |
| 2026-05-04 08:08 | -0.21729 | 104.82812 | 24835 ft | 440 kts | 148° |
| 2026-05-04 08:10 | -0.42467 | 104.96193 | 26287 ft | 449 kts | 144° |
| 2026-05-04 08:11 | -0.45046 | 104.97962 | 26455 ft | 450 kts | 144° |
| 2026-05-04 08:11 | -0.50243 | 105.01492 | 26837 ft | 453 kts | 144° |
| 2026-05-04 08:11 | -0.52857 | 105.03260 | 27034 ft | 454 kts | 144° |
| 2026-05-04 08:12 | -0.55477 | 105.05030 | 27227 ft | 455 kts | 144° |
| 2026-05-04 08:12 | -0.58106 | 105.06807 | 27407 ft | 457 kts | 144° |
| 2026-05-04 08:12 | -0.60742 | 105.08589 | 27602 ft | 458 kts | 144° |
| 2026-05-04 08:12 | -0.63383 | 105.10375 | 27801 ft | 459 kts | 144° |
| 2026-05-04 08:13 | -0.66036 | 105.12170 | 27998 ft | 461 kts | 144° |
| 2026-05-04 08:13 | -0.68691 | 105.13966 | 28194 ft | 462 kts | 144° |
| 2026-05-04 08:13 | -0.71358 | 105.15771 | 28384 ft | 463 kts | 144° |
| 2026-05-04 08:13 | -0.74029 | 105.17578 | 28598 ft | 465 kts | 145° |
| 2026-05-04 08:14 | -0.76714 | 105.19396 | 28700 ft | 468 kts | 145° |
| 2026-05-04 08:14 | -0.79415 | 105.21224 | 28877 ft | 469 kts | 145° |
| 2026-05-04 08:14 | -0.82120 | 105.23054 | 29083 ft | 470 kts | 145° |
| 2026-05-04 08:16 | -1.01201 | 105.35968 | 30453 ft | 478 kts | 144° |
| 2026-05-04 08:16 | -1.03959 | 105.37835 | 30646 ft | 479 kts | 144° |
| 2026-05-04 08:16 | -1.06722 | 105.39705 | 30837 ft | 480 kts | 144° |
| 2026-05-04 08:17 | -1.09491 | 105.41579 | 31029 ft | 481 kts | 144° |
| 2026-05-04 08:17 | -1.12265 | 105.43456 | 31213 ft | 482 kts | 144° |
| 2026-05-04 08:17 | -1.15045 | 105.45338 | 31414 ft | 483 kts | 144° |
| 2026-05-04 08:17 | -1.17833 | 105.47225 | 31580 ft | 484 kts | 144° |
| 2026-05-04 08:19 | -1.37515 | 105.60550 | 32699 ft | 492 kts | 144° |
| 2026-05-04 08:19 | -1.40355 | 105.62473 | 32844 ft | 493 kts | 144° |
| 2026-05-04 08:20 | -1.43197 | 105.64397 | 32984 ft | 494 kts | 144° |
| 2026-05-04 08:20 | -1.46044 | 105.66324 | 33186 ft | 494 kts | 144° |
| 2026-05-04 08:20 | -1.48892 | 105.68252 | 33288 ft | 496 kts | 144° |
| 2026-05-04 08:20 | -1.51759 | 105.70194 | 33358 ft | 498 kts | 144° |
| 2026-05-04 08:21 | -1.54631 | 105.72139 | 33503 ft | 499 kts | 144° |
| 2026-05-04 08:21 | -1.57502 | 105.74083 | 33715 ft | 499 kts | 144° |
| 2026-05-04 08:21 | -1.60374 | 105.76027 | 33920 ft | 498 kts | 144° |
| 2026-05-04 08:21 | -1.63241 | 105.77969 | 34119 ft | 497 kts | 144° |
| 2026-05-04 08:22 | -1.66104 | 105.79907 | 34312 ft | 497 kts | 144° |
| 2026-05-04 08:22 | -1.68967 | 105.81846 | 34515 ft | 497 kts | 144° |
| 2026-05-04 08:24 | -1.88935 | 105.95372 | 35941 ft | 496 kts | 145° |
| 2026-05-04 08:24 | -1.91787 | 105.97304 | 36165 ft | 495 kts | 145° |
| 2026-05-04 08:24 | -1.94636 | 105.99235 | 36409 ft | 495 kts | 145° |
| 2026-05-04 08:24 | -1.97488 | 106.01167 | 36576 ft | 496 kts | 145° |
| 2026-05-04 08:25 | -2.00345 | 106.03103 | 36764 ft | 496 kts | 145° |
| 2026-05-04 08:25 | -2.03164 | 106.05013 | 36994 ft | 495 kts | 145° |
| 2026-05-04 08:25 | -2.06011 | 106.06943 | 37217 ft | 495 kts | 145° |
| 2026-05-04 08:25 | -2.08862 | 106.08875 | 37448 ft | 494 kts | 145° |
| 2026-05-04 08:26 | -2.11711 | 106.10806 | 37647 ft | 494 kts | 145° |
| 2026-05-04 08:27 | -2.27784 | 106.28284 | 39078 ft | 488 kts | 127° |
| 2026-05-04 08:28 | -2.29864 | 106.30974 | 39240 ft | 488 kts | 127° |
| 2026-05-04 08:28 | -2.31942 | 106.33653 | 39410 ft | 487 kts | 127° |
| 2026-05-04 08:28 | -2.34024 | 106.36327 | 39570 ft | 487 kts | 127° |
| 2026-05-04 08:28 | -2.36101 | 106.38987 | 39718 ft | 486 kts | 127° |
| 2026-05-04 08:29 | -2.38187 | 106.41658 | 39870 ft | 486 kts | 127° |
| 2026-05-04 08:29 | -2.40268 | 106.44319 | 39986 ft | 486 kts | 127° |
| 2026-05-04 08:29 | -2.42353 | 106.46985 | 40143 ft | 486 kts | 127° |
| 2026-05-04 08:31 | -2.56887 | 106.65583 | 40846 ft | 484 kts | 128° |
| 2026-05-04 08:33 | -2.73440 | 106.86778 | 40854 ft | 485 kts | 127° |
| 2026-05-04 08:35 | -2.90047 | 107.08050 | 40849 ft | 484 kts | 127° |
| 2026-05-04 08:35 | -2.94185 | 107.13354 | 40851 ft | 483 kts | 127° |
| 2026-05-04 08:37 | -3.08631 | 107.31869 | 40854 ft | 483 kts | 127° |
| 2026-05-04 08:38 | -3.12769 | 107.37175 | 40851 ft | 483 kts | 127° |
| 2026-05-04 08:38 | -3.16901 | 107.42475 | 40851 ft | 483 kts | 128° |
| 2026-05-04 08:40 | -3.31672 | 107.60714 | 40850 ft | 482 kts | 139° |
| 2026-05-04 08:40 | -3.34352 | 107.62725 | 40851 ft | 482 kts | 148° |
| 2026-05-04 08:41 | -3.40352 | 107.65734 | 40852 ft | 483 kts | 155° |
| 2026-05-04 08:41 | -3.46533 | 107.68390 | 40852 ft | 484 kts | 156° |
| 2026-05-04 08:42 | -3.51070 | 107.70303 | 40851 ft | 484 kts | 156° |
| 2026-05-04 08:42 | -3.57728 | 107.73138 | 40852 ft | 484 kts | 156° |
| 2026-05-04 08:43 | -3.63910 | 107.75799 | 40852 ft | 484 kts | 156° |
| 2026-05-04 08:43 | -3.69062 | 107.78024 | 40853 ft | 486 kts | 156° |
| 2026-05-04 08:44 | -3.75276 | 107.80709 | 40849 ft | 486 kts | 156° |
| 2026-05-04 08:46 | -4.00138 | 107.91446 | 40857 ft | 487 kts | 156° |
| 2026-05-04 08:46 | -4.06360 | 107.94134 | 40856 ft | 488 kts | 156° |
| 2026-05-04 08:47 | -4.12595 | 107.96828 | 40855 ft | 488 kts | 156° |
| 2026-05-04 08:47 | -4.18826 | 107.99521 | 40856 ft | 488 kts | 156° |
| 2026-05-04 08:48 | -4.25056 | 108.02213 | 40852 ft | 488 kts | 156° |
| 2026-05-04 08:48 | -4.31293 | 108.04910 | 40852 ft | 488 kts | 156° |
| 2026-05-04 08:49 | -4.37482 | 108.07586 | 40856 ft | 488 kts | 156° |
| 2026-05-04 08:50 | -4.59279 | 108.17015 | 40855 ft | 487 kts | 156° |
| 2026-05-04 08:51 | -4.65512 | 108.19712 | 40855 ft | 487 kts | 155° |
| 2026-05-04 08:51 | -4.71738 | 108.22407 | 40853 ft | 487 kts | 156° |
| 2026-05-04 08:52 | -4.77957 | 108.25099 | 40852 ft | 486 kts | 156° |
| 2026-05-04 08:52 | -4.84169 | 108.27789 | 40853 ft | 486 kts | 156° |
| 2026-05-04 08:54 | -5.08962 | 108.38529 | 40853 ft | 487 kts | 155° |
| 2026-05-04 08:55 | -5.15214 | 108.41240 | 40859 ft | 492 kts | 156° |
| 2026-05-04 08:55 | -5.21498 | 108.43965 | 40853 ft | 491 kts | 156° |
| 2026-05-04 09:01 | -5.87361 | 108.72556 | 40858 ft | 496 kts | 156° |
| 2026-05-04 09:01 | -5.93654 | 108.75291 | 40856 ft | 497 kts | 156° |
| 2026-05-04 09:02 | -5.99998 | 108.78050 | 40859 ft | 497 kts | 156° |
| 2026-05-04 09:02 | -6.06317 | 108.80797 | 40856 ft | 494 kts | 156° |
| 2026-05-04 09:03 | -6.12625 | 108.83542 | 40853 ft | 493 kts | 156° |
| 2026-05-04 09:03 | -6.18936 | 108.86289 | 40856 ft | 495 kts | 156° |
| 2026-05-04 09:04 | -6.25264 | 108.89043 | 40856 ft | 496 kts | 156° |
| 2026-05-04 09:04 | -6.31602 | 108.91803 | 40856 ft | 496 kts | 156° |
| 2026-05-04 09:05 | -6.37940 | 108.94563 | 40854 ft | 496 kts | 156° |
| 2026-05-04 09:05 | -6.44273 | 108.97321 | 40852 ft | 496 kts | 156° |
| 2026-05-04 09:06 | -6.50610 | 109.00082 | 40849 ft | 497 kts | 156° |
| 2026-05-04 09:08 | -6.76099 | 109.11196 | 40863 ft | 499 kts | 156° |
| 2026-05-04 09:08 | -6.82461 | 109.13973 | 40857 ft | 498 kts | 156° |
| 2026-05-04 09:09 | -6.88802 | 109.16740 | 40855 ft | 498 kts | 156° |
| 2026-05-04 09:09 | -6.95169 | 109.19520 | 40872 ft | 497 kts | 156° |
| 2026-05-04 09:10 | -7.01522 | 109.22294 | 40873 ft | 497 kts | 156° |
| 2026-05-04 09:10 | -7.07871 | 109.25068 | 40873 ft | 497 kts | 156° |
| 2026-05-04 09:11 | -7.14216 | 109.27841 | 40870 ft | 497 kts | 156° |
| 2026-05-04 09:11 | -7.20530 | 109.30600 | 40878 ft | 499 kts | 156° |
| 2026-05-04 09:12 | -7.26901 | 109.33386 | 40878 ft | 500 kts | 156° |
| 2026-05-04 09:14 | -7.52434 | 109.44560 | 40883 ft | 500 kts | 156° |
| 2026-05-04 09:14 | -7.58824 | 109.47358 | 40880 ft | 501 kts | 156° |
| 2026-05-04 09:15 | -7.65216 | 109.50159 | 40864 ft | 501 kts | 156° |
| 2026-05-04 09:15 | -7.71608 | 109.52960 | 40864 ft | 501 kts | 156° |
| 2026-05-04 09:17 | -8.00387 | 109.65583 | 40851 ft | 502 kts | 156° |
| 2026-05-04 09:18 | -8.06793 | 109.68396 | 40864 ft | 502 kts | 156° |
| 2026-05-04 09:18 | -8.13199 | 109.71209 | 40866 ft | 502 kts | 156° |
| 2026-05-04 09:19 | -8.19607 | 109.74025 | 40864 ft | 502 kts | 156° |
| 2026-05-04 09:19 | -8.26014 | 109.76841 | 40866 ft | 502 kts | 156° |
| 2026-05-04 09:20 | -8.32420 | 109.79658 | 40864 ft | 502 kts | 156° |
| 2026-05-04 09:20 | -8.38778 | 109.82455 | 40865 ft | 501 kts | 156° |
| 2026-05-04 09:21 | -8.45219 | 109.85288 | 40865 ft | 501 kts | 156° |
| 2026-05-04 09:21 | -8.51567 | 109.88082 | 40863 ft | 501 kts | 156° |
| 2026-05-04 09:22 | -8.57965 | 109.90899 | 40864 ft | 501 kts | 156° |
| 2026-05-04 09:22 | -8.64363 | 109.93717 | 40862 ft | 501 kts | 156° |
| 2026-05-04 09:23 | -8.70762 | 109.96537 | 40867 ft | 502 kts | 156° |
| 2026-05-04 09:23 | -8.77163 | 109.99358 | 40868 ft | 502 kts | 156° |
| 2026-05-04 09:25 | -9.02748 | 110.10647 | 40869 ft | 501 kts | 156° |
| 2026-05-04 09:26 | -9.09097 | 110.13451 | 40869 ft | 501 kts | 156° |
| 2026-05-04 09:26 | -9.15489 | 110.16275 | 40870 ft | 501 kts | 157° |
| 2026-05-04 09:27 | -9.21876 | 110.19098 | 40871 ft | 501 kts | 157° |
| 2026-05-04 09:27 | -9.28257 | 110.21919 | 40870 ft | 501 kts | 157° |
| 2026-05-04 09:28 | -9.34659 | 110.24751 | 40871 ft | 501 kts | 157° |
| 2026-05-04 09:28 | -9.41042 | 110.27576 | 40876 ft | 501 kts | 157° |
| 2026-05-04 09:29 | -9.47440 | 110.30408 | 40877 ft | 502 kts | 157° |
| 2026-05-04 09:29 | -9.53825 | 110.33236 | 40874 ft | 501 kts | 157° |
| 2026-05-04 09:30 | -9.60219 | 110.36069 | 40878 ft | 501 kts | 157° |
| 2026-05-04 09:30 | -9.66612 | 110.38902 | 40878 ft | 501 kts | 157° |
| 2026-05-04 09:31 | -9.73000 | 110.41735 | 40877 ft | 501 kts | 157° |
| 2026-05-04 09:31 | -9.78309 | 110.44090 | 40879 ft | 502 kts | 157° |
| 2026-05-04 09:32 | -9.84698 | 110.46925 | 40877 ft | 501 kts | 157° |
| 2026-05-04 09:34 | -10.10238 | 110.58224 | 40881 ft | 501 kts | 157° |
| 2026-05-04 09:34 | -10.16616 | 110.61041 | 40880 ft | 500 kts | 157° |
| 2026-05-04 09:35 | -10.23002 | 110.63865 | 40882 ft | 501 kts | 157° |
| 2026-05-04 09:35 | -10.29388 | 110.66691 | 40880 ft | 500 kts | 157° |
| 2026-05-04 09:37 | -10.54917 | 110.77997 | 40885 ft | 501 kts | 157° |
| 2026-05-04 09:38 | -10.61255 | 110.80808 | 40885 ft | 500 kts | 158° |
| 2026-05-04 09:38 | -10.67632 | 110.83637 | 40886 ft | 500 kts | 158° |
| 2026-05-04 09:39 | -10.74012 | 110.86468 | 40887 ft | 500 kts | 158° |
| 2026-05-04 09:39 | -10.80387 | 110.89298 | 40886 ft | 500 kts | 158° |
| 2026-05-04 09:40 | -10.86759 | 110.92129 | 40889 ft | 500 kts | 158° |
| 2026-05-04 09:40 | -10.93134 | 110.94962 | 40891 ft | 500 kts | 158° |
| 2026-05-04 09:42 | -11.18664 | 111.06321 | 40893 ft | 501 kts | 158° |
| 2026-05-04 09:43 | -11.25045 | 111.09164 | 40893 ft | 501 kts | 158° |
| 2026-05-04 09:43 | -11.31431 | 111.12010 | 40892 ft | 501 kts | 158° |
| 2026-05-04 09:44 | -11.37819 | 111.14859 | 40895 ft | 501 kts | 158° |
| 2026-05-04 09:46 | -11.63311 | 111.26240 | 40899 ft | 500 kts | 158° |
| 2026-05-04 09:46 | -11.69685 | 111.29090 | 40901 ft | 500 kts | 158° |
| 2026-05-04 09:47 | -11.76055 | 111.31938 | 40902 ft | 500 kts | 158° |
| 2026-05-04 09:49 | -12.01291 | 111.43860 | 40902 ft | 502 kts | 145° |
| 2026-05-04 09:51 | -12.20507 | 111.59379 | 40907 ft | 503 kts | 142° |
| 2026-05-04 09:51 | -12.25985 | 111.63862 | 40905 ft | 504 kts | 143° |
| 2026-05-04 09:52 | -12.31474 | 111.68346 | 40911 ft | 505 kts | 143° |
| 2026-05-04 09:52 | -12.36960 | 111.72831 | 40909 ft | 505 kts | 143° |
| 2026-05-04 09:53 | -12.42449 | 111.77321 | 40909 ft | 505 kts | 143° |
| 2026-05-04 09:53 | -12.47938 | 111.81815 | 40909 ft | 505 kts | 143° |
| 2026-05-04 09:54 | -12.53421 | 111.86305 | 40912 ft | 505 kts | 143° |
| 2026-05-04 09:54 | -12.58906 | 111.90801 | 40909 ft | 505 kts | 143° |
| 2026-05-04 09:55 | -12.64397 | 111.95303 | 40905 ft | 506 kts | 143° |
| 2026-05-04 09:55 | -12.69889 | 111.99809 | 40916 ft | 506 kts | 143° |
| 2026-05-04 09:56 | -12.75385 | 112.04320 | 40917 ft | 506 kts | 143° |
| 2026-05-04 09:56 | -12.80878 | 112.08832 | 40915 ft | 506 kts | 143° |
| 2026-05-04 09:57 | -12.86377 | 112.13352 | 40917 ft | 506 kts | 143° |
| 2026-05-04 09:57 | -12.91831 | 112.17838 | 40915 ft | 506 kts | 143° |
| 2026-05-04 09:58 | -12.97320 | 112.22354 | 40922 ft | 506 kts | 143° |
| 2026-05-04 09:58 | -13.02806 | 112.26870 | 40914 ft | 506 kts | 143° |